Time;durP1;ratioP1;P1;durP2;ratioP2;P2;SDS_P1;SDS_P2;PMS_P1;PMS_P2;Temp;Humidity;BMP_temperature;BMP_pressure;BME280_temperature;BME280_humidity;BME280_pressure;Samples;Min_cycle;Max_cycle;Signal;HPM_P1;HPM_P2
2021/06/18 00:00:21;;;;;;;8.90;8.00;;;;;;;;;;5052154;28;20400;-90
2021/06/18 00:02:48;;;;;;;8.70;7.90;;;;;;;;;;5052711;28;20392;-88
2021/06/18 00:05:14;;;;;;;8.90;7.87;;;;;;;;;;5069942;28;20417;-91
2021/06/18 00:07:42;;;;;;;9.20;7.53;;;;;;;;;;5069716;28;20427;-88
2021/06/18 00:10:09;;;;;;;11.73;8.07;;;;;;;;;;5070222;27;20370;-90
2021/06/18 00:12:36;;;;;;;8.80;8.00;;;;;;;;;;5051968;28;20417;-92
2021/06/18 00:15:02;;;;;;;11.45;7.93;;;;;;;;;;5053146;28;20362;-92
2021/06/18 00:17:28;;;;;;;8.88;7.97;;;;;;;;;;5052382;28;20389;-89
2021/06/18 00:19:54;;;;;;;9.13;8.18;;;;;;;;;;5051824;28;20864;-90
2021/06/18 00:22:25;;;;;;;9.85;7.95;;;;;;;;;;5052219;28;20457;-92
2021/06/18 00:24:53;;;;;;;10.05;8.15;;;;;;;;;;5051483;28;20381;-89
2021/06/18 00:27:19;;;;;;;10.63;7.88;;;;;;;;;;5051744;27;20366;-87
2021/06/18 00:29:45;;;;;;;9.32;8.30;;;;;;;;;;5052394;27;20914;-90
2021/06/18 00:32:11;;;;;;;9.57;7.95;;;;;;;;;;5051405;28;20458;-91
2021/06/18 00:34:37;;;;;;;9.68;8.10;;;;;;;;;;5052419;28;20386;-89
2021/06/18 00:37:05;;;;;;;13.03;8.40;;;;;;;;;;5070757;27;20723;-92
2021/06/18 00:39:32;;;;;;;11.77;8.60;;;;;;;;;;5055654;28;20366;-92
2021/06/18 00:41:58;;;;;;;11.00;8.43;;;;;;;;;;5055155;28;20895;-92
2021/06/18 00:44:30;;;;;;;11.13;8.10;;;;;;;;;;5072079;27;20367;-93
2021/06/18 00:46:56;;;;;;;9.23;8.13;;;;;;;;;;5054621;28;20816;-92
2021/06/18 00:49:23;;;;;;;11.20;8.48;;;;;;;;;;5055280;28;20847;-93
2021/06/18 00:51:49;;;;;;;13.52;8.75;;;;;;;;;;5056268;27;20410;-91
2021/06/18 00:54:27;;;;;;;11.68;8.35;;;;;;;;;;5054351;28;20378;-92
2021/06/18 00:56:54;;;;;;;11.02;8.73;;;;;;;;;;5052878;28;20374;-92
2021/06/18 00:59:20;;;;;;;13.60;8.85;;;;;;;;;;5053503;28;20370;-91
2021/06/18 01:01:46;;;;;;;10.00;8.85;;;;;;;;;;5051517;28;20386;-91
2021/06/18 01:04:12;;;;;;;9.35;8.43;;;;;;;;;;5052660;28;20374;-91
2021/06/18 01:06:39;;;;;;;10.60;9.13;;;;;;;;;;5050864;28;20378;-90
2021/06/18 01:09:07;;;;;;;12.82;8.90;;;;;;;;;;5051048;28;20365;-91
2021/06/18 01:11:46;;;;;;;10.40;8.93;;;;;;;;;;5051509;28;20385;-90
2021/06/18 01:14:30;;;;;;;10.02;8.93;;;;;;;;;;5051312;28;20378;-90
2021/06/18 01:17:00;;;;;;;10.60;9.50;;;;;;;;;;5050496;28;20430;-90
2021/06/18 01:19:29;;;;;;;12.75;9.85;;;;;;;;;;5051588;28;20402;-90
2021/06/18 01:21:57;;;;;;;10.07;9.05;;;;;;;;;;5051012;28;20922;-90
2021/06/18 01:24:32;;;;;;;10.75;9.63;;;;;;;;;;5050583;27;20390;-91
2021/06/18 01:27:05;;;;;;;13.10;9.67;;;;;;;;;;5054896;28;20494;-91
2021/06/18 01:29:39;;;;;;;10.55;8.88;;;;;;;;;;5052909;28;20378;-92
2021/06/18 01:32:06;;;;;;;10.43;9.32;;;;;;;;;;5051865;28;20439;-90
2021/06/18 01:34:34;;;;;;;11.73;10.35;;;;;;;;;;5050384;28;20385;-91
2021/06/18 01:37:04;;;;;;;10.60;9.57;;;;;;;;;;5050015;28;20489;-91
2021/06/18 01:39:32;;;;;;;10.75;9.65;;;;;;;;;;5050500;28;20453;-91
2021/06/18 01:42:00;;;;;;;10.55;9.60;;;;;;;;;;5050596;28;20891;-91
2021/06/18 01:44:26;;;;;;;11.05;9.90;;;;;;;;;;5050797;28;20379;-92
2021/06/18 01:46:53;;;;;;;24.38;11.55;;;;;;;;;;5050106;28;20378;-91
2021/06/18 01:49:20;;;;;;;10.98;9.98;;;;;;;;;;5050072;28;20370;-91
2021/06/18 01:51:48;;;;;;;10.95;9.88;;;;;;;;;;5050442;28;20393;-90
2021/06/18 01:54:15;;;;;;;11.52;10.32;;;;;;;;;;5053428;28;20383;-91
2021/06/18 01:56:41;;;;;;;11.43;10.23;;;;;;;;;;5052718;28;20743;-90
2021/06/18 01:59:08;;;;;;;13.77;10.18;;;;;;;;;;5053836;28;20378;-90
2021/06/18 02:01:40;;;;;;;12.40;10.90;;;;;;;;;;5054364;28;20386;-90
2021/06/18 02:04:06;;;;;;;12.90;11.60;;;;;;;;;;5054580;28;20386;-90
2021/06/18 02:06:33;;;;;;;12.07;10.90;;;;;;;;;;5053185;28;20406;-90
2021/06/18 02:09:00;;;;;;;14.43;10.30;;;;;;;;;;5053370;28;20370;-90
2021/06/18 02:11:27;;;;;;;11.55;10.40;;;;;;;;;;5053255;28;20866;-89
2021/06/18 02:13:54;;;;;;;12.03;10.83;;;;;;;;;;5071315;28;20910;-90
2021/06/18 02:16:22;;;;;;;11.85;10.75;;;;;;;;;;5053212;28;20417;-91
2021/06/18 02:18:48;;;;;;;25.20;11.88;;;;;;;;;;5053418;28;20378;-90
2021/06/18 02:21:14;;;;;;;50.17;13.82;;;;;;;;;;5053196;28;20390;-91
2021/06/18 02:23:41;;;;;;;13.35;11.07;;;;;;;;;;5053072;27;20382;-91
2021/06/18 02:26:07;;;;;;;12.15;10.95;;;;;;;;;;5053122;28;20366;-91
2021/06/18 02:28:34;;;;;;;13.00;11.05;;;;;;;;;;5053214;28;20370;-90
2021/06/18 02:31:02;;;;;;;12.10;11.00;;;;;;;;;;5053484;28;20382;-90
2021/06/18 02:33:28;;;;;;;12.80;11.50;;;;;;;;;;5052884;28;20457;-91
2021/06/18 02:35:54;;;;;;;12.43;11.25;;;;;;;;;;5052592;28;20792;-91
2021/06/18 02:38:20;;;;;;;12.40;11.10;;;;;;;;;;5053087;28;20458;-93
2021/06/18 02:40:46;;;;;;;13.90;11.10;;;;;;;;;;5053218;28;20433;-91
2021/06/18 02:43:12;;;;;;;13.23;11.68;;;;;;;;;;5053078;28;20374;-90
2021/06/18 02:45:39;;;;;;;14.77;11.45;;;;;;;;;;5052829;28;20879;-91
2021/06/18 02:48:24;;;;;;;13.03;11.30;;;;;;;;;;5053268;28;20374;-92
2021/06/18 02:50:56;;;;;;;13.15;11.77;;;;;;;;;;5052887;28;20409;-91
2021/06/18 02:53:28;;;;;;;12.43;11.17;;;;;;;;;;5052802;28;20859;-91
2021/06/18 02:55:58;;;;;;;17.80;11.73;;;;;;;;;;5052686;28;20370;-91
2021/06/18 02:58:25;;;;;;;21.55;11.60;;;;;;;;;;5052736;28;20379;-92
2021/06/18 03:00:52;;;;;;;19.70;13.48;;;;;;;;;;5052525;28;20398;-91
2021/06/18 03:03:38;;;;;;;14.00;12.35;;;;;;;;;;5052695;28;20454;-92
2021/06/18 03:06:05;;;;;;;15.75;12.05;;;;;;;;;;5052016;28;20370;-92
2021/06/18 03:08:38;;;;;;;12.95;11.60;;;;;;;;;;5052459;28;20410;-92
2021/06/18 03:11:04;;;;;;;14.47;12.77;;;;;;;;;;5052631;28;20374;-91
2021/06/18 03:13:33;;;;;;;13.32;12.02;;;;;;;;;;5052599;28;20367;-91
2021/06/18 03:15:59;;;;;;;12.82;11.50;;;;;;;;;;5051805;28;20375;-91
2021/06/18 03:18:26;;;;;;;17.27;12.03;;;;;;;;;;5052818;28;20382;-91
2021/06/18 03:20:55;;;;;;;13.20;11.90;;;;;;;;;;5052351;28;20420;-91
2021/06/18 03:23:22;;;;;;;12.88;11.57;;;;;;;;;;5052316;28;20393;-91
2021/06/18 03:25:48;;;;;;;13.13;11.80;;;;;;;;;;5052151;28;20383;-89
2021/06/18 03:28:14;;;;;;;13.77;11.95;;;;;;;;;;5052217;28;20390;-92
2021/06/18 03:30:41;;;;;;;13.15;11.63;;;;;;;;;;5052289;28;20768;-91
2021/06/18 03:33:08;;;;;;;13.82;11.88;;;;;;;;;;5052043;28;20386;-91
2021/06/18 03:35:35;;;;;;;14.52;11.75;;;;;;;;;;5051814;28;20386;-91
2021/06/18 03:38:01;;;;;;;15.35;11.85;;;;;;;;;;5052545;28;20374;-90
2021/06/18 03:40:27;;;;;;;15.65;12.38;;;;;;;;;;5052270;28;20406;-90
2021/06/18 03:42:54;;;;;;;15.23;12.38;;;;;;;;;;5052121;28;20363;-91
2021/06/18 03:45:21;;;;;;;18.25;11.90;;;;;;;;;;5051323;28;20378;-90
2021/06/18 03:47:48;;;;;;;62.25;15.80;;;;;;;;;;5052075;28;20414;-90
2021/06/18 03:50:15;;;;;;;50.95;16.55;;;;;;;;;;5052020;28;20409;-90
2021/06/18 03:52:41;;;;;;;26.20;12.63;;;;;;;;;;5052100;28;20377;-90
2021/06/18 03:55:08;;;;;;;13.73;11.55;;;;;;;;;;5051845;28;20382;-90
2021/06/18 03:57:35;;;;;;;12.38;11.07;;;;;;;;;;5051833;28;20402;-91
2021/06/18 04:00:02;;;;;;;28.67;13.32;;;;;;;;;;5051953;28;20374;-90
2021/06/18 04:02:33;;;;;;;13.13;11.53;;;;;;;;;;5051870;28;20367;-90
2021/06/18 04:05:00;;;;;;;21.43;12.73;;;;;;;;;;5051616;28;20449;-91
2021/06/18 04:07:27;;;;;;;14.93;13.25;;;;;;;;;;5052168;28;20358;-90
2021/06/18 04:09:54;;;;;;;38.42;13.82;;;;;;;;;;5052565;28;20371;-90
2021/06/18 04:12:20;;;;;;;32.03;14.05;;;;;;;;;;5051512;28;20394;-91
2021/06/18 04:14:46;;;;;;;45.78;14.23;;;;;;;;;;5051564;28;20873;-91
2021/06/18 04:17:12;;;;;;;27.58;12.70;;;;;;;;;;5051623;28;20382;-90
2021/06/18 04:19:40;;;;;;;26.30;12.60;;;;;;;;;;5051769;28;20882;-90
2021/06/18 04:22:06;;;;;;;51.42;14.65;;;;;;;;;;5052564;28;20390;-91
2021/06/18 04:24:33;;;;;;;19.85;11.80;;;;;;;;;;5052159;27;20869;-90
2021/06/18 04:27:00;;;;;;;92.70;18.40;;;;;;;;;;5051756;28;20374;-89
2021/06/18 04:29:26;;;;;;;20.15;10.25;;;;;;;;;;5052004;28;20728;-91
2021/06/18 04:31:52;;;;;;;19.98;10.45;;;;;;;;;;5052079;28;20397;-91
2021/06/18 04:34:19;;;;;;;21.60;10.13;;;;;;;;;;5052264;28;20713;-93
2021/06/18 04:36:45;;;;;;;26.92;10.65;;;;;;;;;;5052161;28;20810;-91
2021/06/18 04:39:11;;;;;;;19.77;9.73;;;;;;;;;;5052163;28;20367;-92
2021/06/18 04:41:37;;;;;;;12.43;8.90;;;;;;;;;;5052684;28;20513;-90
2021/06/18 04:44:07;;;;;;;23.77;9.85;;;;;;;;;;5052407;28;20844;-89
2021/06/18 04:46:33;;;;;;;16.23;8.88;;;;;;;;;;5051568;28;20437;-91
2021/06/18 04:48:59;;;;;;;10.45;8.25;;;;;;;;;;5051686;28;20366;-88
2021/06/18 04:51:28;;;;;;;10.90;7.70;;;;;;;;;;5051580;27;20738;-94
2021/06/18 04:53:55;;;;;;;10.80;8.23;;;;;;;;;;5052142;28;20420;-91
2021/06/18 04:56:21;;;;;;;21.75;9.10;;;;;;;;;;5051957;28;20374;-91
2021/06/18 04:58:47;;;;;;;10.63;7.63;;;;;;;;;;5051648;28;20377;-91
2021/06/18 05:01:14;;;;;;;11.15;7.63;;;;;;;;;;5054676;28;20488;-91
2021/06/18 05:03:41;;;;;;;29.47;9.37;;;;;;;;;;5053745;28;20374;-88
2021/06/18 05:06:06;;;;;;;7.95;7.05;;;;;;;;;;5054749;28;20374;-89
2021/06/18 05:08:32;;;;;;;11.95;7.57;;;;;;;;;;5053190;28;20938;-89
2021/06/18 05:11:01;;;;;;;10.13;7.50;;;;;;;;;;5070454;27;20410;-91
2021/06/18 05:13:27;;;;;;;227.80;27.15;;;;;;;;;;5051573;28;20405;-91
2021/06/18 05:15:56;;;;;;;14.90;7.30;;;;;;;;;;5051667;28;20414;-88
2021/06/18 05:18:22;;;;;;;9.35;7.40;;;;;;;;;;5051214;28;20755;-91
2021/06/18 05:20:48;;;;;;;12.00;7.18;;;;;;;;;;5051155;28;20518;-92
2021/06/18 05:23:14;;;;;;;21.27;7.50;;;;;;;;;;5069488;27;20867;-91
2021/06/18 05:25:43;;;;;;;24.60;7.90;;;;;;;;;;5100780;27;20371;-91
2021/06/18 05:28:11;;;;;;;74.03;12.20;;;;;;;;;;5138531;27;20878;-91
2021/06/18 05:30:37;;;;;;;34.50;9.18;;;;;;;;;;5138555;27;20382;-89
2021/06/18 05:33:04;;;;;;;15.27;7.45;;;;;;;;;;5138989;27;20740;-93
2021/06/18 05:35:30;;;;;;;16.33;7.10;;;;;;;;;;5138238;27;20374;-88
2021/06/18 05:37:56;;;;;;;7.78;6.15;;;;;;;;;;5138597;27;20475;-92
2021/06/18 05:40:22;;;;;;;13.25;7.13;;;;;;;;;;5139675;27;20386;-90
2021/06/18 05:42:48;;;;;;;40.50;10.68;;;;;;;;;;5139353;27;20378;-90
2021/06/18 05:45:14;;;;;;;184.47;24.57;;;;;;;;;;5138408;27;20998;-92
2021/06/18 05:47:40;;;;;;;13.07;6.22;;;;;;;;;;5068871;28;20445;-91
2021/06/18 05:50:07;;;;;;;11.10;6.43;;;;;;;;;;5139404;27;20419;-90
2021/06/18 05:52:36;;;;;;;10.37;6.13;;;;;;;;;;5139105;27;20825;-94
2021/06/18 05:55:02;;;;;;;13.27;6.88;;;;;;;;;;5138835;27;20374;-91
2021/06/18 05:57:28;;;;;;;9.07;6.00;;;;;;;;;;5138684;27;20851;-89
2021/06/18 05:59:54;;;;;;;9.02;6.45;;;;;;;;;;5138890;27;20382;-88
2021/06/18 06:02:22;;;;;;;11.18;5.78;;;;;;;;;;5139153;27;20493;-91
2021/06/18 06:04:48;;;;;;;13.15;6.13;;;;;;;;;;5139456;27;20371;-93
2021/06/18 06:07:22;;;;;;;6.72;5.55;;;;;;;;;;5140244;27;20367;-94
2021/06/18 06:09:48;;;;;;;35.35;7.97;;;;;;;;;;5139590;27;20390;-91
2021/06/18 06:12:14;;;;;;;19.88;6.88;;;;;;;;;;5139253;27;20728;-89
2021/06/18 06:14:40;;;;;;;34.27;7.67;;;;;;;;;;5140148;27;20401;-90
2021/06/18 06:17:08;;;;;;;12.88;5.93;;;;;;;;;;5138509;27;20434;-88
2021/06/18 06:19:40;;;;;;;8.10;5.47;;;;;;;;;;5138077;27;20376;-91
2021/06/18 06:22:06;;;;;;;16.20;5.60;;;;;;;;;;5139204;27;20912;-92
2021/06/18 06:24:32;;;;;;;8.35;5.00;;;;;;;;;;5069391;27;20378;-93
2021/06/18 06:27:00;;;;;;;17.48;5.78;;;;;;;;;;5069125;27;20369;-90
2021/06/18 06:29:26;;;;;;;15.30;5.75;;;;;;;;;;5139389;27;20646;-90
2021/06/18 06:31:52;;;;;;;14.75;6.35;;;;;;;;;;5139205;27;20373;-90
2021/06/18 06:34:19;;;;;;;39.67;7.80;;;;;;;;;;5138875;27;20373;-92
2021/06/18 06:36:45;;;;;;;17.65;6.05;;;;;;;;;;5138797;27;20379;-87
2021/06/18 06:39:11;;;;;;;9.70;4.97;;;;;;;;;;5138517;27;20401;-85
2021/06/18 06:41:37;;;;;;;7.75;5.47;;;;;;;;;;5065256;27;20902;-93
2021/06/18 06:44:04;;;;;;;9.40;5.50;;;;;;;;;;5061965;27;20378;-89
2021/06/18 06:46:30;;;;;;;10.48;5.30;;;;;;;;;;5080034;28;20736;-90
2021/06/18 06:48:56;;;;;;;7.32;5.00;;;;;;;;;;5077801;28;20358;-91
2021/06/18 06:51:22;;;;;;;11.98;5.60;;;;;;;;;;5062866;28;20930;-89
2021/06/18 06:53:48;;;;;;;7.65;4.78;;;;;;;;;;5055660;28;20389;-90
2021/06/18 06:56:16;;;;;;;41.00;8.82;;;;;;;;;;5054564;28;20454;-92
2021/06/18 06:58:43;;;;;;;76.38;12.00;;;;;;;;;;5053839;28;20400;-93
2021/06/18 07:01:10;;;;;;;20.08;5.68;;;;;;;;;;5054110;28;20892;-91
2021/06/18 07:03:36;;;;;;;8.52;4.63;;;;;;;;;;5054571;28;20371;-90
2021/06/18 07:06:03;;;;;;;13.10;5.05;;;;;;;;;;5054398;28;20371;-91
2021/06/18 07:08:29;;;;;;;40.78;7.82;;;;;;;;;;5050789;27;20382;-91
2021/06/18 07:10:57;;;;;;;10.50;5.20;;;;;;;;;;5071025;27;20381;-92
2021/06/18 07:13:23;;;;;;;6.72;4.35;;;;;;;;;;5053707;28;20916;-89
2021/06/18 07:15:55;;;;;;;36.85;7.78;;;;;;;;;;5053627;28;20379;-93
2021/06/18 07:18:25;;;;;;;9.95;4.50;;;;;;;;;;5050813;28;20860;-93
2021/06/18 07:20:51;;;;;;;53.42;8.80;;;;;;;;;;5054230;27;20929;-90
2021/06/18 07:23:17;;;;;;;20.27;5.90;;;;;;;;;;5053720;28;20878;-91
2021/06/18 07:25:44;;;;;;;5.75;4.18;;;;;;;;;;5054064;28;20387;-91
2021/06/18 07:28:11;;;;;;;11.18;4.40;;;;;;;;;;5053758;28;20377;-91
2021/06/18 07:30:37;;;;;;;12.50;4.55;;;;;;;;;;5053796;28;20378;-91
2021/06/18 07:33:03;;;;;;;15.45;5.53;;;;;;;;;;5053920;28;20911;-92
2021/06/18 07:35:34;;;;;;;12.02;4.93;;;;;;;;;;5070776;28;20363;-92
2021/06/18 07:38:00;;;;;;;10.18;4.47;;;;;;;;;;5053598;28;20393;-93
2021/06/18 07:40:26;;;;;;;9.93;4.72;;;;;;;;;;5053931;28;20501;-91
2021/06/18 07:42:52;;;;;;;37.95;7.45;;;;;;;;;;5071535;27;20359;-93
2021/06/18 07:45:18;;;;;;;28.23;6.75;;;;;;;;;;5053706;28;20773;-92
2021/06/18 07:47:44;;;;;;;49.63;8.18;;;;;;;;;;5053876;28;20417;-89
2021/06/18 07:50:12;;;;;;;9.27;4.50;;;;;;;;;;5053626;28;20446;-91
2021/06/18 07:52:38;;;;;;;8.45;4.53;;;;;;;;;;5054772;28;20899;-89
2021/06/18 07:55:06;;;;;;;6.82;3.90;;;;;;;;;;5053395;28;20370;-88
2021/06/18 07:57:32;;;;;;;7.27;4.10;;;;;;;;;;5053499;28;20409;-90
2021/06/18 07:59:58;;;;;;;14.73;4.43;;;;;;;;;;5052860;28;20395;-90
2021/06/18 08:02:24;;;;;;;8.43;3.75;;;;;;;;;;5053096;28;20398;-91
2021/06/18 08:04:51;;;;;;;30.55;6.18;;;;;;;;;;5052717;28;20366;-90
2021/06/18 08:07:21;;;;;;;13.00;4.25;;;;;;;;;;5117812;27;20366;-89
2021/06/18 08:09:47;;;;;;;13.98;4.35;;;;;;;;;;5154834;27;20398;-90
2021/06/18 08:12:13;;;;;;;6.90;3.58;;;;;;;;;;5095542;27;20724;-89
2021/06/18 08:14:39;;;;;;;7.20;3.50;;;;;;;;;;5052669;28;20394;-92
2021/06/18 08:17:05;;;;;;;7.53;3.50;;;;;;;;;;5052498;27;20941;-90
2021/06/18 08:19:34;;;;;;;19.67;4.63;;;;;;;;;;5053214;27;20459;-91
2021/06/18 08:22:00;;;;;;;13.65;4.03;;;;;;;;;;5051711;28;20759;-88
2021/06/18 08:24:28;;;;;;;24.77;5.10;;;;;;;;;;5064708;27;20374;-88
2021/06/18 08:26:54;;;;;;;34.33;6.07;;;;;;;;;;5053402;27;20373;-91
2021/06/18 08:29:20;;;;;;;9.37;3.47;;;;;;;;;;5058004;27;20445;-92
2021/06/18 08:31:46;;;;;;;6.53;3.30;;;;;;;;;;5057249;27;20385;-90
2021/06/18 08:34:12;;;;;;;8.43;3.70;;;;;;;;;;5055952;27;20438;-89
2021/06/18 08:36:39;;;;;;;9.25;3.60;;;;;;;;;;5131558;27;20470;-91
2021/06/18 08:39:06;;;;;;;14.07;4.03;;;;;;;;;;5058623;27;20384;-90
2021/06/18 08:41:32;;;;;;;4.05;2.97;;;;;;;;;;5121088;27;20396;-90
2021/06/18 08:43:59;;;;;;;4.43;3.13;;;;;;;;;;5063174;27;20935;-88
2021/06/18 08:46:25;;;;;;;68.57;9.27;;;;;;;;;;5056781;28;20362;-90
2021/06/18 08:48:51;;;;;;;7.80;3.55;;;;;;;;;;5055393;27;20374;-88
2021/06/18 08:51:20;;;;;;;6.88;3.10;;;;;;;;;;5052864;27;20366;-90
2021/06/18 08:53:48;;;;;;;5.70;2.90;;;;;;;;;;5052246;28;20408;-91
2021/06/18 08:56:17;;;;;;;7.03;3.13;;;;;;;;;;5055916;27;20469;-91
2021/06/18 08:58:47;;;;;;;9.02;3.65;;;;;;;;;;5062331;27;20381;-89
2021/06/18 09:01:13;;;;;;;17.67;5.18;;;;;;;;;;5052667;27;20448;-90
2021/06/18 09:03:43;;;;;;;6.30;3.13;;;;;;;;;;5119912;27;20469;-91
2021/06/18 09:06:18;;;;;;;19.63;5.00;;;;;;;;;;5059357;27;20390;-91
2021/06/18 09:08:50;;;;;;;9.05;3.78;;;;;;;;;;5056833;27;20375;-91
2021/06/18 09:11:35;;;;;;;5.75;3.20;;;;;;;;;;5057640;27;20367;-88
2021/06/18 09:14:40;;;;;;;4.35;3.40;;;;;;;;;;5055513;27;20375;-90
2021/06/18 09:17:08;;;;;;;15.30;4.57;;;;;;;;;;4971119;28;20399;-92
2021/06/18 09:19:36;;;;;;;29.90;5.00;;;;;;;;;;4968470;28;20379;-92
2021/06/18 09:22:10;;;;;;;8.05;3.67;;;;;;;;;;5016328;27;21453;-90
2021/06/18 09:24:39;;;;;;;4.32;3.35;;;;;;;;;;5057842;27;20385;-91
2021/06/18 09:27:05;;;;;;;5.85;3.40;;;;;;;;;;5059194;27;20445;-92
2021/06/18 09:29:35;;;;;;;8.27;3.20;;;;;;;;;;5085375;27;20431;-91
2021/06/18 09:32:06;;;;;;;12.23;3.63;;;;;;;;;;5087807;27;20388;-90
2021/06/18 09:35:00;;;;;;;6.87;3.77;;;;;;;;;;5051807;28;20371;-93
2021/06/18 09:37:29;;;;;;;11.48;3.70;;;;;;;;;;5052185;28;20872;-90
2021/06/18 09:40:13;;;;;;;25.25;5.18;;;;;;;;;;5051770;28;20381;-92
2021/06/18 09:42:45;;;;;;;22.35;4.32;;;;;;;;;;5052289;28;20382;-90
2021/06/18 09:45:12;;;;;;;5.35;3.13;;;;;;;;;;5059737;27;20393;-91
2021/06/18 09:47:42;;;;;;;5.22;3.47;;;;;;;;;;5055743;27;20454;-93
2021/06/18 09:50:22;;;;;;;24.52;5.03;;;;;;;;;;5143303;27;20367;-87
2021/06/18 09:52:49;;;;;;;3.85;2.83;;;;;;;;;;5062402;27;20368;-90
2021/06/18 09:55:21;;;;;;;6.70;2.85;;;;;;;;;;5057871;27;20370;-89
2021/06/18 09:57:54;;;;;;;61.35;7.88;;;;;;;;;;5058199;27;20375;-92
2021/06/18 10:00:26;;;;;;;6.88;3.42;;;;;;;;;;5061435;27;20454;-90
2021/06/18 10:02:56;;;;;;;9.27;3.10;;;;;;;;;;5058608;27;20887;-90
2021/06/18 10:05:22;;;;;;;4.00;3.00;;;;;;;;;;5057507;27;20373;-90
2021/06/18 10:07:50;;;;;;;71.35;9.63;;;;;;;;;;5056857;27;20358;-91
2021/06/18 10:10:26;;;;;;;29.88;5.47;;;;;;;;;;5104720;27;20362;-92
2021/06/18 10:12:59;;;;;;;10.37;3.40;;;;;;;;;;5056898;27;20358;-90
2021/06/18 10:15:27;;;;;;;6.22;3.15;;;;;;;;;;5122862;27;20365;-90
2021/06/18 10:17:55;;;;;;;7.33;3.10;;;;;;;;;;5060375;27;20902;-91
2021/06/18 10:20:25;;;;;;;6.75;3.25;;;;;;;;;;5061119;27;20489;-90
2021/06/18 10:22:58;;;;;;;6.13;3.05;;;;;;;;;;5122383;27;20453;-92
2021/06/18 10:25:33;;;;;;;25.70;5.30;;;;;;;;;;5059993;27;20360;-91
2021/06/18 10:28:03;;;;;;;26.13;5.40;;;;;;;;;;5122150;27;20397;-90
2021/06/18 10:30:31;;;;;;;10.18;3.90;;;;;;;;;;5068267;27;20350;-90
2021/06/18 10:32:58;;;;;;;32.97;7.15;;;;;;;;;;5062016;27;20384;-89
2021/06/18 10:35:49;;;;;;;8.15;3.58;;;;;;;;;;5062486;27;20442;-94
2021/06/18 10:38:25;;;;;;;4.88;3.15;;;;;;;;;;5062100;27;20377;-90
2021/06/18 10:41:01;;;;;;;5.40;3.33;;;;;;;;;;5060172;27;20903;-91
2021/06/18 10:43:38;;;;;;;28.23;5.85;;;;;;;;;;5058703;27;20410;-93
2021/06/18 10:46:10;;;;;;;7.05;3.50;;;;;;;;;;5062464;27;20422;-91
2021/06/18 10:48:52;;;;;;;26.30;4.97;;;;;;;;;;5060429;27;20389;-90
2021/06/18 10:51:34;;;;;;;20.73;4.03;;;;;;;;;;5060073;27;20382;-92
2021/06/18 10:54:04;;;;;;;5.47;3.50;;;;;;;;;;5060332;27;20366;-90
2021/06/18 10:56:45;;;;;;;7.82;3.90;;;;;;;;;;5060702;27;20373;-89
2021/06/18 10:59:26;;;;;;;6.22;3.38;;;;;;;;;;5061692;27;20423;-91
2021/06/18 11:02:02;;;;;;;12.00;3.95;;;;;;;;;;5111723;27;20390;-91
2021/06/18 11:04:40;;;;;;;34.08;6.13;;;;;;;;;;5071269;27;20362;-91
2021/06/18 11:07:23;;;;;;;5.78;3.38;;;;;;;;;;5062761;27;20386;-91
2021/06/18 11:09:52;;;;;;;4.57;3.25;;;;;;;;;;5068785;27;20387;-91
2021/06/18 11:12:29;;;;;;;6.95;3.22;;;;;;;;;;5067421;27;20448;-92
2021/06/18 11:15:01;;;;;;;18.47;4.27;;;;;;;;;;5060747;27;20365;-91
2021/06/18 11:17:44;;;;;;;10.07;3.85;;;;;;;;;;5057027;27;20379;-88
2021/06/18 11:20:15;;;;;;;4.43;3.00;;;;;;;;;;5061740;27;20828;-90
2021/06/18 11:23:13;;;;;;;6.85;3.08;;;;;;;;;;5071114;27;20909;-93
2021/06/18 11:25:40;;;;;;;4.57;2.93;;;;;;;;;;5059486;27;20370;-91
2021/06/18 11:28:18;;;;;;;7.03;2.95;;;;;;;;;;5058522;27;20499;-91
2021/06/18 11:31:01;;;;;;;5.80;3.17;;;;;;;;;;5059680;27;20358;-87
2021/06/18 11:33:55;;;;;;;28.85;5.68;;;;;;;;;;5065628;27;20367;-92
2021/06/18 11:36:21;;;;;;;4.90;3.10;;;;;;;;;;5065437;27;20678;-90
2021/06/18 11:38:58;;;;;;;6.32;3.30;;;;;;;;;;5062979;27;20859;-91
2021/06/18 11:41:26;;;;;;;112.27;12.80;;;;;;;;;;5119055;27;20401;-91
2021/06/18 11:43:56;;;;;;;4.90;3.15;;;;;;;;;;5059921;27;20802;-89
2021/06/18 11:46:22;;;;;;;3.30;3.00;;;;;;;;;;5058591;27;20872;-89
2021/06/18 11:48:51;;;;;;;4.30;3.10;;;;;;;;;;5061243;27;20390;-91
2021/06/18 11:51:23;;;;;;;3.90;2.80;;;;;;;;;;5059769;27;20377;-89
2021/06/18 11:53:56;;;;;;;8.55;3.30;;;;;;;;;;5062045;27;20375;-92
2021/06/18 11:56:26;;;;;;;6.82;3.10;;;;;;;;;;5058161;27;20371;-91
2021/06/18 11:58:55;;;;;;;5.88;3.38;;;;;;;;;;5059460;27;20466;-90
2021/06/18 12:01:28;;;;;;;4.82;2.90;;;;;;;;;;5124277;27;20406;-88
2021/06/18 12:03:58;;;;;;;4.22;2.85;;;;;;;;;;5127039;27;20361;-92
2021/06/18 12:06:28;;;;;;;5.72;3.60;;;;;;;;;;5067629;27;20406;-92
2021/06/18 12:09:09;;;;;;;6.30;3.05;;;;;;;;;;5066279;27;20375;-89
2021/06/18 12:11:39;;;;;;;5.60;2.85;;;;;;;;;;5065745;27;20401;-91
2021/06/18 12:14:06;;;;;;;5.87;3.07;;;;;;;;;;5061770;27;20404;-86
2021/06/18 12:16:36;;;;;;;5.90;3.30;;;;;;;;;;5062390;27;20959;-93
2021/06/18 12:19:21;;;;;;;4.37;3.13;;;;;;;;;;5062112;27;20374;-90
2021/06/18 12:21:57;;;;;;;4.30;3.10;;;;;;;;;;5074523;28;20394;-90
2021/06/18 12:24:26;;;;;;;6.97;3.60;;;;;;;;;;5054583;27;20371;-91
2021/06/18 12:26:55;;;;;;;5.50;3.08;;;;;;;;;;5053200;28;20367;-92
2021/06/18 12:29:22;;;;;;;3.85;3.00;;;;;;;;;;5052357;28;20405;-91
2021/06/18 12:31:49;;;;;;;3.88;3.20;;;;;;;;;;5053577;28;20381;-92
2021/06/18 12:34:15;;;;;;;5.18;3.28;;;;;;;;;;5052830;28;20366;-88
2021/06/18 12:36:41;;;;;;;6.70;3.30;;;;;;;;;;5052577;28;20453;-91
2021/06/18 12:39:14;;;;;;;5.75;3.20;;;;;;;;;;5096914;27;20390;-93
2021/06/18 12:41:41;;;;;;;5.43;3.70;;;;;;;;;;5078195;27;20393;-92
2021/06/18 12:44:08;;;;;;;89.40;10.32;;;;;;;;;;5109602;27;20374;-92
2021/06/18 12:46:37;;;;;;;4.57;3.05;;;;;;;;;;5157636;27;20358;-92
2021/06/18 12:49:10;;;;;;;3.28;2.90;;;;;;;;;;5156277;27;20365;-92
2021/06/18 12:51:37;;;;;;;5.75;3.03;;;;;;;;;;5157139;27;20377;-90
2021/06/18 12:54:05;;;;;;;6.05;3.25;;;;;;;;;;5155875;27;20354;-90
2021/06/18 12:56:38;;;;;;;5.65;3.05;;;;;;;;;;5157227;27;20377;-92
2021/06/18 12:59:09;;;;;;;10.02;3.80;;;;;;;;;;5157282;27;20400;-89
2021/06/18 13:01:39;;;;;;;159.90;21.57;;;;;;;;;;5157023;27;20386;-92
2021/06/18 13:04:06;;;;;;;18.60;4.80;;;;;;;;;;5158345;27;20353;-90
2021/06/18 13:06:50;;;;;;;10.05;3.78;;;;;;;;;;5156466;27;20365;-93
2021/06/18 13:09:16;;;;;;;18.92;4.70;;;;;;;;;;5157246;27;20370;-90
2021/06/18 13:11:52;;;;;;;16.17;3.90;;;;;;;;;;5157427;27;20374;-88
2021/06/18 13:14:21;;;;;;;5.35;3.10;;;;;;;;;;5157338;27;20372;-90
2021/06/18 13:16:49;;;;;;;8.65;3.10;;;;;;;;;;5157575;27;20403;-91
2021/06/18 13:19:16;;;;;;;6.70;2.72;;;;;;;;;;5157029;27;20440;-90
2021/06/18 13:21:57;;;;;;;3.13;2.80;;;;;;;;;;5155703;27;20429;-91
2021/06/18 13:24:23;;;;;;;5.30;3.13;;;;;;;;;;5156831;27;20389;-88
2021/06/18 13:27:12;;;;;;;18.70;4.10;;;;;;;;;;5155649;27;20370;-92
2021/06/18 13:29:46;;;;;;;8.67;2.77;;;;;;;;;;5157028;27;20452;-90
2021/06/18 13:32:12;;;;;;;6.45;3.00;;;;;;;;;;5157656;27;20362;-91
2021/06/18 13:34:42;;;;;;;5.15;2.78;;;;;;;;;;5155649;27;20372;-95
2021/06/18 13:37:08;;;;;;;3.58;3.00;;;;;;;;;;5156446;27;20361;-91
2021/06/18 13:39:41;;;;;;;3.63;3.03;;;;;;;;;;5155908;27;20357;-91
2021/06/18 13:42:11;;;;;;;9.23;2.95;;;;;;;;;;5175120;27;20381;-93
2021/06/18 13:44:37;;;;;;;9.90;3.47;;;;;;;;;;5176095;27;20358;-92
2021/06/18 13:47:03;;;;;;;6.20;2.77;;;;;;;;;;5051101;28;20784;-94
2021/06/18 13:49:32;;;;;;;7.70;2.83;;;;;;;;;;5053134;28;20442;-91
2021/06/18 13:52:01;;;;;;;5.13;2.65;;;;;;;;;;5054074;28;20389;-93
2021/06/18 13:54:36;;;;;;;4.90;2.78;;;;;;;;;;5132072;27;20883;-93
2021/06/18 13:57:05;;;;;;;5.75;2.75;;;;;;;;;;5158248;27;20828;-92
2021/06/18 13:59:31;;;;;;;6.53;2.92;;;;;;;;;;5142937;27;20725;-91
2021/06/18 14:01:57;;;;;;;4.22;2.60;;;;;;;;;;5143542;27;20481;-92
2021/06/18 14:04:28;;;;;;;4.70;2.72;;;;;;;;;;5096318;27;20434;-91
2021/06/18 14:06:58;;;;;;;5.27;2.57;;;;;;;;;;5071201;27;20411;-92
2021/06/18 14:09:27;;;;;;;4.07;2.80;;;;;;;;;;5074193;28;20866;-93
2021/06/18 14:11:54;;;;;;;6.50;3.10;;;;;;;;;;5071452;27;20378;-90
2021/06/18 14:14:22;;;;;;;3.85;2.53;;;;;;;;;;5053405;28;20366;-92
2021/06/18 14:16:51;;;;;;;10.98;3.20;;;;;;;;;;5055585;28;20396;-91
2021/06/18 14:19:18;;;;;;;7.72;3.20;;;;;;;;;;5055155;28;20408;-91
2021/06/18 14:21:47;;;;;;;16.48;4.18;;;;;;;;;;5055725;28;20390;-93
2021/06/18 14:24:20;;;;;;;6.97;3.10;;;;;;;;;;5054873;27;20382;-93
2021/06/18 14:26:49;;;;;;;4.60;2.70;;;;;;;;;;5054959;28;20389;-92
2021/06/18 14:29:21;;;;;;;5.40;2.80;;;;;;;;;;5055231;28;20370;-91
2021/06/18 14:31:49;;;;;;;6.13;2.85;;;;;;;;;;5054280;28;20370;-94
2021/06/18 14:34:16;;;;;;;5.68;3.10;;;;;;;;;;5056054;27;20377;-92
2021/06/18 14:36:43;;;;;;;12.70;3.70;;;;;;;;;;5055023;28;20363;-91
2021/06/18 14:39:09;;;;;;;7.15;3.05;;;;;;;;;;5072989;27;20871;-89
2021/06/18 14:41:36;;;;;;;3.50;2.70;;;;;;;;;;5227019;23;20428;-88
2021/06/18 14:44:02;;;;;;;17.58;4.95;;;;;;;;;;5063681;28;20527;-85